sensor_id;sensor_type;location;lat;lon;timestamp;pressure;altitude;pressure_sealevel;temperature;humidity
76378;BME280;65200;49.500;8.654;2022-12-07T00:02:21;100705.28;;;3.15;88.29
76378;BME280;65200;49.500;8.654;2022-12-07T00:04:48;100702.38;;;3.18;88.05
76378;BME280;65200;49.500;8.654;2022-12-07T00:07:14;100703.31;;;3.07;89.22
76378;BME280;65200;49.500;8.654;2022-12-07T00:09:41;100698.97;;;3.06;88.73
76378;BME280;65200;49.500;8.654;2022-12-07T00:12:08;100699.94;;;2.96;89.58
76378;BME280;65200;49.500;8.654;2022-12-07T00:14:34;100705.13;;;3.07;88.93
76378;BME280;65200;49.500;8.654;2022-12-07T00:17:01;100698.19;;;3.15;88.07
76378;BME280;65200;49.500;8.654;2022-12-07T00:19:28;100689.81;;;3.10;87.85
76378;BME280;65200;49.500;8.654;2022-12-07T00:21:55;100684.09;;;3.15;87.24
76378;BME280;65200;49.500;8.654;2022-12-07T00:24:21;100683.25;;;3.14;87.81
76378;BME280;65200;49.500;8.654;2022-12-07T00:26:48;100676.44;;;3.12;89.00
76378;BME280;65200;49.500;8.654;2022-12-07T00:29:16;100670.44;;;3.10;88.24
76378;BME280;65200;49.500;8.654;2022-12-07T00:31:42;100667.78;;;3.10;88.32
76378;BME280;65200;49.500;8.654;2022-12-07T00:34:13;100671.28;;;3.10;88.76
76378;BME280;65200;49.500;8.654;2022-12-07T00:36:41;100673.50;;;3.05;88.72
76378;BME280;65200;49.500;8.654;2022-12-07T00:39:08;100673.06;;;3.00;88.88
76378;BME280;65200;49.500;8.654;2022-12-07T00:41:34;100661.47;;;3.01;89.31
76378;BME280;65200;49.500;8.654;2022-12-07T00:44:01;100670.44;;;3.10;89.12
76378;BME280;65200;49.500;8.654;2022-12-07T00:46:28;100669.44;;;3.11;88.80
76378;BME280;65200;49.500;8.654;2022-12-07T00:48:55;100660.66;;;3.01;88.02
76378;BME280;65200;49.500;8.654;2022-12-07T00:51:24;100658.44;;;3.06;88.42
76378;BME280;65200;49.500;8.654;2022-12-07T00:53:52;100671.94;;;3.03;89.08
76378;BME280;65200;49.500;8.654;2022-12-07T00:56:20;100659.53;;;3.03;89.59
76378;BME280;65200;49.500;8.654;2022-12-07T00:58:49;100666.91;;;3.00;89.71
76378;BME280;65200;49.500;8.654;2022-12-07T01:01:16;100664.66;;;2.95;89.46
76378;BME280;65200;49.500;8.654;2022-12-07T01:03:42;100661.88;;;2.97;89.29
76378;BME280;65200;49.500;8.654;2022-12-07T01:06:08;100664.00;;;3.03;88.47
76378;BME280;65200;49.500;8.654;2022-12-07T01:08:35;100666.50;;;3.04;88.44
76378;BME280;65200;49.500;8.654;2022-12-07T01:11:04;100671.78;;;3.04;88.50
76378;BME280;65200;49.500;8.654;2022-12-07T01:13:32;100671.53;;;2.98;88.95
76378;BME280;65200;49.500;8.654;2022-12-07T01:16:00;100676.53;;;3.01;88.79
76378;BME280;65200;49.500;8.654;2022-12-07T01:18:27;100665.81;;;3.02;89.20
76378;BME280;65200;49.500;8.654;2022-12-07T01:20:58;100666.50;;;3.04;89.15
76378;BME280;65200;49.500;8.654;2022-12-07T01:23:25;100656.03;;;3.03;88.40
76378;BME280;65200;49.500;8.654;2022-12-07T01:25:54;100664.00;;;3.03;89.47
76378;BME280;65200;49.500;8.654;2022-12-07T01:28:23;100664.84;;;3.03;88.40
76378;BME280;65200;49.500;8.654;2022-12-07T01:31:00;100661.50;;;3.11;87.20
76378;BME280;65200;49.500;8.654;2022-12-07T01:33:28;100659.13;;;3.08;89.01
76378;BME280;65200;49.500;8.654;2022-12-07T01:35:55;100653.84;;;3.08;87.95
76378;BME280;65200;49.500;8.654;2022-12-07T01:38:26;100651.91;;;3.10;87.08
76378;BME280;65200;49.500;8.654;2022-12-07T01:40:56;100652.59;;;3.12;87.21
76378;BME280;65200;49.500;8.654;2022-12-07T01:43:26;100663.19;;;3.12;87.08
76378;BME280;65200;49.500;8.654;2022-12-07T01:45:54;100664.16;;;3.11;87.08
76378;BME280;65200;49.500;8.654;2022-12-07T01:48:24;100662.78;;;3.16;87.04
76378;BME280;65200;49.500;8.654;2022-12-07T01:50:53;100664.84;;;3.13;87.11
76378;BME280;65200;49.500;8.654;2022-12-07T01:53:24;100662.38;;;3.21;86.99
76378;BME280;65200;49.500;8.654;2022-12-07T01:55:52;100667.53;;;3.22;87.23
76378;BME280;65200;49.500;8.654;2022-12-07T01:58:20;100664.44;;;3.17;87.67
76378;BME280;65200;49.500;8.654;2022-12-07T02:00:48;100668.06;;;3.07;88.16
76378;BME280;65200;49.500;8.654;2022-12-07T02:03:18;100674.06;;;3.09;88.42
76378;BME280;65200;49.500;8.654;2022-12-07T02:05:46;100665.41;;;3.07;88.34
76378;BME280;65200;49.500;8.654;2022-12-07T02:08:14;100662.19;;;3.03;88.98
76378;BME280;65200;49.500;8.654;2022-12-07T02:10:41;100665.09;;;3.00;88.92
76378;BME280;65200;49.500;8.654;2022-12-07T02:13:10;100648.38;;;3.00;89.28
76378;BME280;65200;49.500;8.654;2022-12-07T02:16:03;100648.66;;;2.97;89.05
76378;BME280;65200;49.500;8.654;2022-12-07T02:18:41;100650.34;;;2.98;89.26
76378;BME280;65200;49.500;8.654;2022-12-07T02:21:13;100641.97;;;2.93;89.78
76378;BME280;65200;49.500;8.654;2022-12-07T02:24:10;100634.84;;;2.93;89.75
76378;BME280;65200;49.500;8.654;2022-12-07T02:27:07;100619.53;;;2.97;89.39
76378;BME280;65200;49.500;8.654;2022-12-07T02:29:42;100619.09;;;2.92;89.35
76378;BME280;65200;49.500;8.654;2022-12-07T02:32:15;100623.16;;;2.96;89.32
76378;BME280;65200;49.500;8.654;2022-12-07T02:34:48;100621.88;;;2.90;89.35
76378;BME280;65200;49.500;8.654;2022-12-07T02:37:27;100634.16;;;2.91;89.08
76378;BME280;65200;49.500;8.654;2022-12-07T02:40:02;100627.16;;;2.80;89.29
76378;BME280;65200;49.500;8.654;2022-12-07T02:42:37;100647.63;;;2.78;89.42
76378;BME280;65200;49.500;8.654;2022-12-07T02:45:07;100644.09;;;2.68;90.05
76378;BME280;65200;49.500;8.654;2022-12-07T02:47:35;100646.88;;;2.67;90.25
76378;BME280;65200;49.500;8.654;2022-12-07T02:50:04;100650.34;;;2.67;90.09
76378;BME280;65200;49.500;8.654;2022-12-07T02:52:31;100653.00;;;2.67;90.22
76378;BME280;65200;49.500;8.654;2022-12-07T02:54:57;100651.97;;;2.79;89.22
76378;BME280;65200;49.500;8.654;2022-12-07T02:57:40;100652.63;;;2.81;88.98
76378;BME280;65200;49.500;8.654;2022-12-07T03:00:13;100645.69;;;2.80;88.50
76378;BME280;65200;49.500;8.654;2022-12-07T03:02:50;100649.34;;;2.89;88.29
76378;BME280;65200;49.500;8.654;2022-12-07T03:05:40;100637.22;;;2.96;87.83
76378;BME280;65200;49.500;8.654;2022-12-07T03:08:15;100634.31;;;2.99;87.38
76378;BME280;65200;49.500;8.654;2022-12-07T03:10:50;100625.56;;;3.08;86.52
76378;BME280;65200;49.500;8.654;2022-12-07T03:13:24;100625.97;;;3.04;86.27
76378;BME280;65200;49.500;8.654;2022-12-07T03:15:58;100621.63;;;3.03;86.47
76378;BME280;65200;49.500;8.654;2022-12-07T03:18:29;100628.06;;;3.10;85.95
76378;BME280;65200;49.500;8.654;2022-12-07T03:21:01;100619.97;;;3.11;86.16
76378;BME280;65200;49.500;8.654;2022-12-07T03:23:29;100614.41;;;3.14;85.62
76378;BME280;65200;49.500;8.654;2022-12-07T03:26:00;100622.91;;;3.08;86.12
76378;BME280;65200;49.500;8.654;2022-12-07T03:28:31;100623.34;;;3.13;85.62
76378;BME280;65200;49.500;8.654;2022-12-07T03:31:03;100614.69;;;3.11;85.44
76378;BME280;65200;49.500;8.654;2022-12-07T03:33:34;100613.31;;;3.17;85.22
76378;BME280;65200;49.500;8.654;2022-12-07T03:36:08;100616.13;;;3.25;84.51
76378;BME280;65200;49.500;8.654;2022-12-07T03:38:40;100604.53;;;3.26;85.04
76378;BME280;65200;49.500;8.654;2022-12-07T03:41:10;100596.88;;;3.23;85.13
76378;BME280;65200;49.500;8.654;2022-12-07T03:43:39;100588.63;;;3.26;84.56
76378;BME280;65200;49.500;8.654;2022-12-07T03:46:15;100591.00;;;3.29;83.82
76378;BME280;65200;49.500;8.654;2022-12-07T03:48:49;100590.47;;;3.25;84.25
76378;BME280;65200;49.500;8.654;2022-12-07T03:51:22;100596.59;;;3.26;84.59
76378;BME280;65200;49.500;8.654;2022-12-07T03:53:54;100599.22;;;3.26;84.07
76378;BME280;65200;49.500;8.654;2022-12-07T03:56:23;100594.38;;;3.31;83.90
76378;BME280;65200;49.500;8.654;2022-12-07T03:58:51;100599.09;;;3.37;83.95
76378;BME280;65200;49.500;8.654;2022-12-07T04:01:20;100595.78;;;3.35;83.46
76378;BME280;65200;49.500;8.654;2022-12-07T04:03:46;100596.59;;;3.45;83.39
76378;BME280;65200;49.500;8.654;2022-12-07T04:06:13;100588.63;;;3.45;82.20
76378;BME280;65200;49.500;8.654;2022-12-07T04:08:40;100582.09;;;3.39;82.67
76378;BME280;65200;49.500;8.654;2022-12-07T04:11:06;100592.41;;;3.42;82.34
76378;BME280;65200;49.500;8.654;2022-12-07T04:13:33;100592.69;;;3.49;81.82
76378;BME280;65200;49.500;8.654;2022-12-07T04:16:20;100588.25;;;3.49;81.62
76378;BME280;65200;49.500;8.654;2022-12-07T04:18:47;100593.25;;;3.52;81.89
76378;BME280;65200;49.500;8.654;2022-12-07T04:21:13;100582.09;;;3.49;83.25
76378;BME280;65200;49.500;8.654;2022-12-07T04:23:40;100576.94;;;3.47;83.03
76378;BME280;65200;49.500;8.654;2022-12-07T04:26:06;100572.63;;;3.46;82.68
76378;BME280;65200;49.500;8.654;2022-12-07T04:28:33;100574.72;;;3.43;83.60
76378;BME280;65200;49.500;8.654;2022-12-07T04:30:59;100569.13;;;3.46;83.74
76378;BME280;65200;49.500;8.654;2022-12-07T04:33:27;100574.44;;;3.46;82.80
76378;BME280;65200;49.500;8.654;2022-12-07T04:35:53;100582.09;;;3.49;83.86
76378;BME280;65200;49.500;8.654;2022-12-07T04:38:20;100591.28;;;3.45;84.24
76378;BME280;65200;49.500;8.654;2022-12-07T04:40:46;100582.66;;;3.43;83.60
76378;BME280;65200;49.500;8.654;2022-12-07T04:43:13;100588.53;;;3.46;84.11
76378;BME280;65200;49.500;8.654;2022-12-07T04:45:39;100594.22;;;3.51;84.17
76378;BME280;65200;49.500;8.654;2022-12-07T04:48:06;100597.56;;;3.44;84.44
76378;BME280;65200;49.500;8.654;2022-12-07T04:50:35;100604.16;;;3.40;84.97
76378;BME280;65200;49.500;8.654;2022-12-07T04:53:03;100609.31;;;3.41;86.71
76378;BME280;65200;49.500;8.654;2022-12-07T04:55:29;100607.59;;;3.31;86.45
76378;BME280;65200;49.500;8.654;2022-12-07T04:57:56;100606.19;;;3.17;87.52
76378;BME280;65200;49.500;8.654;2022-12-07T05:00:22;100604.94;;;3.12;88.63
76378;BME280;65200;49.500;8.654;2022-12-07T05:02:49;100603.53;;;3.08;89.85
76378;BME280;65200;49.500;8.654;2022-12-07T05:05:15;100598.22;;;3.08;89.57
76378;BME280;65200;49.500;8.654;2022-12-07T05:07:43;100596.84;;;3.04;90.12
76378;BME280;65200;49.500;8.654;2022-12-07T05:10:10;100595.44;;;3.00;90.15
76378;BME280;65200;49.500;8.654;2022-12-07T05:12:36;100585.81;;;2.99;90.28
76378;BME280;65200;49.500;8.654;2022-12-07T05:15:03;100588.88;;;2.94;89.29
76378;BME280;65200;49.500;8.654;2022-12-07T05:17:30;100588.31;;;2.91;89.10
76378;BME280;65200;49.500;8.654;2022-12-07T05:19:56;100596.41;;;2.89;89.27
76378;BME280;65200;49.500;8.654;2022-12-07T05:22:23;100591.25;;;2.88;89.62
76378;BME280;65200;49.500;8.654;2022-12-07T05:24:54;100593.03;;;2.77;89.92
76378;BME280;65200;49.500;8.654;2022-12-07T05:27:20;100596.53;;;2.78;89.03
76378;BME280;65200;49.500;8.654;2022-12-07T05:29:47;100596.22;;;2.71;89.56
76378;BME280;65200;49.500;8.654;2022-12-07T05:32:13;100600.94;;;2.68;89.20
76378;BME280;65200;49.500;8.654;2022-12-07T05:34:40;100596.47;;;2.68;88.96
76378;BME280;65200;49.500;8.654;2022-12-07T05:37:06;100596.59;;;2.67;90.47
76378;BME280;65200;49.500;8.654;2022-12-07T05:39:33;100598.28;;;2.68;90.18
76378;BME280;65200;49.500;8.654;2022-12-07T05:42:01;100600.09;;;2.67;89.48
76378;BME280;65200;49.500;8.654;2022-12-07T05:44:39;100602.03;;;2.65;90.08
76378;BME280;65200;49.500;8.654;2022-12-07T05:47:06;100593.13;;;2.66;90.59
76378;BME280;65200;49.500;8.654;2022-12-07T05:49:33;100592.59;;;2.72;89.97
76378;BME280;65200;49.500;8.654;2022-12-07T05:51:59;100591.47;;;2.75;90.36
76378;BME280;65200;49.500;8.654;2022-12-07T05:54:26;100600.13;;;2.77;90.68
76378;BME280;65200;49.500;8.654;2022-12-07T05:56:53;100597.06;;;2.81;90.26
76378;BME280;65200;49.500;8.654;2022-12-07T05:59:20;100595.94;;;2.74;90.21
76378;BME280;65200;49.500;8.654;2022-12-07T06:01:50;100597.88;;;2.72;90.01
76378;BME280;65200;49.500;8.654;2022-12-07T06:04:16;100591.16;;;2.68;89.81
76378;BME280;65200;49.500;8.654;2022-12-07T06:06:43;100599.50;;;2.64;89.54
76378;BME280;65200;49.500;8.654;2022-12-07T06:09:10;100598.00;;;2.61;90.74
76378;BME280;65200;49.500;8.654;2022-12-07T06:11:37;100598.81;;;2.62;89.91
76378;BME280;65200;49.500;8.654;2022-12-07T06:14:22;100591.28;;;2.57;90.38
76378;BME280;65200;49.500;8.654;2022-12-07T06:16:49;100595.34;;;2.61;89.47
76378;BME280;65200;49.500;8.654;2022-12-07T06:19:15;100592.53;;;2.53;90.90
76378;BME280;65200;49.500;8.654;2022-12-07T06:21:42;100585.94;;;2.48;90.74
76378;BME280;65200;49.500;8.654;2022-12-07T06:24:10;100593.91;;;2.57;90.54
76378;BME280;65200;49.500;8.654;2022-12-07T06:26:37;100596.84;;;2.54;90.60
76378;BME280;65200;49.500;8.654;2022-12-07T06:29:04;100593.09;;;2.57;90.46
76378;BME280;65200;49.500;8.654;2022-12-07T06:31:31;100595.63;;;2.58;90.54
76378;BME280;65200;49.500;8.654;2022-12-07T06:33:58;100596.56;;;2.57;90.83
76378;BME280;65200;49.500;8.654;2022-12-07T06:36:25;100598.63;;;2.54;90.70
76378;BME280;65200;49.500;8.654;2022-12-07T06:38:51;100602.84;;;2.56;91.04
76378;BME280;65200;49.500;8.654;2022-12-07T06:41:18;100591.97;;;2.50;91.03
76378;BME280;65200;49.500;8.654;2022-12-07T06:43:45;100608.84;;;2.58;90.33
76378;BME280;65200;49.500;8.654;2022-12-07T06:46:11;100600.34;;;2.55;90.67
76378;BME280;65200;49.500;8.654;2022-12-07T06:48:39;100600.59;;;2.52;91.19
76378;BME280;65200;49.500;8.654;2022-12-07T06:51:06;100592.09;;;2.48;90.86
76378;BME280;65200;49.500;8.654;2022-12-07T06:53:33;100604.78;;;2.54;91.04
76378;BME280;65200;49.500;8.654;2022-12-07T06:56:00;100601.03;;;2.57;91.85
76378;BME280;65200;49.500;8.654;2022-12-07T06:58:26;100602.28;;;2.62;91.31
76378;BME280;65200;49.500;8.654;2022-12-07T07:00:53;100594.22;;;2.64;90.90
76378;BME280;65200;49.500;8.654;2022-12-07T07:03:20;100606.38;;;2.66;90.45
76378;BME280;65200;49.500;8.654;2022-12-07T07:05:48;100607.31;;;2.65;90.71
76378;BME280;65200;49.500;8.654;2022-12-07T07:08:15;100606.19;;;2.58;91.28
76378;BME280;65200;49.500;8.654;2022-12-07T07:10:41;100608.56;;;2.61;91.32
76378;BME280;65200;49.500;8.654;2022-12-07T07:13:08;100603.31;;;2.71;90.87
76378;BME280;65200;49.500;8.654;2022-12-07T07:15:37;100605.09;;;2.70;90.73
76378;BME280;65200;49.500;8.654;2022-12-07T07:18:03;100612.91;;;2.72;90.17
76378;BME280;65200;49.500;8.654;2022-12-07T07:20:30;100618.50;;;2.78;90.55
76378;BME280;65200;49.500;8.654;2022-12-07T07:22:58;100614.91;;;2.79;90.97
76378;BME280;65200;49.500;8.654;2022-12-07T07:25:24;100615.06;;;2.88;89.58
76378;BME280;65200;49.500;8.654;2022-12-07T07:27:50;100620.50;;;2.86;89.65
76378;BME280;65200;49.500;8.654;2022-12-07T07:30:17;100611.13;;;2.82;89.49
76378;BME280;65200;49.500;8.654;2022-12-07T07:32:44;100610.28;;;2.81;89.62
76378;BME280;65200;49.500;8.654;2022-12-07T07:35:11;100614.75;;;2.81;90.17
76378;BME280;65200;49.500;8.654;2022-12-07T07:37:39;100614.63;;;2.83;89.99
76378;BME280;65200;49.500;8.654;2022-12-07T07:40:08;100609.78;;;2.88;90.51
76378;BME280;65200;49.500;8.654;2022-12-07T07:42:35;100617.72;;;2.88;90.21
76378;BME280;65200;49.500;8.654;2022-12-07T07:45:02;100619.09;;;2.92;89.17
76378;BME280;65200;49.500;8.654;2022-12-07T07:47:29;100619.25;;;2.90;88.81
76378;BME280;65200;49.500;8.654;2022-12-07T07:49:55;100621.88;;;2.90;89.32
76378;BME280;65200;49.500;8.654;2022-12-07T07:52:22;100633.19;;;2.92;88.32
76378;BME280;65200;49.500;8.654;2022-12-07T07:54:48;100626.09;;;2.93;88.29
76378;BME280;65200;49.500;8.654;2022-12-07T07:57:17;100633.31;;;2.91;89.62
76378;BME280;65200;49.500;8.654;2022-12-07T07:59:44;100624.81;;;2.97;88.51
76378;BME280;65200;49.500;8.654;2022-12-07T08:02:14;100631.91;;;2.96;88.40
76378;BME280;65200;49.500;8.654;2022-12-07T08:04:41;100626.38;;;2.99;87.93
76378;BME280;65200;49.500;8.654;2022-12-07T08:07:07;100634.72;;;3.04;88.18
76378;BME280;65200;49.500;8.654;2022-12-07T08:09:34;100632.22;;;3.03;88.03
76378;BME280;65200;49.500;8.654;2022-12-07T08:12:00;100629.44;;;3.04;88.22
76378;BME280;65200;49.500;8.654;2022-12-07T08:14:28;100635.56;;;3.05;88.32
76378;BME280;65200;49.500;8.654;2022-12-07T08:16:55;100640.31;;;3.11;87.79
76378;BME280;65200;49.500;8.654;2022-12-07T08:19:21;100630.00;;;3.08;88.04
76378;BME280;65200;49.500;8.654;2022-12-07T08:21:48;100636.00;;;3.10;87.20
76378;BME280;65200;49.500;8.654;2022-12-07T08:24:15;100642.84;;;3.12;87.12
76378;BME280;65200;49.500;8.654;2022-12-07T08:26:42;100641.75;;;3.15;88.86
76378;BME280;65200;49.500;8.654;2022-12-07T08:29:08;100640.38;;;3.20;88.36
76378;BME280;65200;49.500;8.654;2022-12-07T08:31:37;100641.03;;;3.22;87.20
76378;BME280;65200;49.500;8.654;2022-12-07T08:34:04;100642.03;;;3.31;86.78
76378;BME280;65200;49.500;8.654;2022-12-07T08:36:30;100630.75;;;3.29;86.86
76378;BME280;65200;49.500;8.654;2022-12-07T08:38:57;100634.81;;;3.33;86.27
76378;BME280;65200;49.500;8.654;2022-12-07T08:41:23;100642.31;;;3.28;87.51
76378;BME280;65200;49.500;8.654;2022-12-07T08:43:51;100641.34;;;3.29;86.57
76378;BME280;65200;49.500;8.654;2022-12-07T08:46:19;100633.38;;;3.29;86.48
76378;BME280;65200;49.500;8.654;2022-12-07T08:48:52;100642.19;;;3.29;86.95
76378;BME280;65200;49.500;8.654;2022-12-07T08:51:21;100643.84;;;3.30;86.46
76378;BME280;65200;49.500;8.654;2022-12-07T08:53:49;100639.38;;;3.31;86.15
76378;BME280;65200;49.500;8.654;2022-12-07T08:56:16;100640.09;;;3.33;85.54
76378;BME280;65200;49.500;8.654;2022-12-07T08:58:43;100640.09;;;3.33;85.68
76378;BME280;65200;49.500;8.654;2022-12-07T09:01:10;100641.63;;;3.26;85.71
76378;BME280;65200;49.500;8.654;2022-12-07T09:03:36;100637.88;;;3.38;86.84
76378;BME280;65200;49.500;8.654;2022-12-07T09:06:05;100636.47;;;3.34;85.29
76378;BME280;65200;49.500;8.654;2022-12-07T09:08:35;100637.59;;;3.31;86.41
76378;BME280;65200;49.500;8.654;2022-12-07T09:11:02;100639.38;;;3.31;86.14
76378;BME280;65200;49.500;8.654;2022-12-07T09:13:29;100639.81;;;3.36;86.18
76378;BME280;65200;49.500;8.654;2022-12-07T09:15:55;100642.03;;;3.40;86.05
76378;BME280;65200;49.500;8.654;2022-12-07T09:18:22;100639.97;;;3.44;86.69
76378;BME280;65200;49.500;8.654;2022-12-07T09:20:49;100635.09;;;3.39;86.00
76378;BME280;65200;49.500;8.654;2022-12-07T09:23:17;100636.47;;;3.43;85.61
76378;BME280;65200;49.500;8.654;2022-12-07T09:25:43;100643.75;;;3.51;85.10
76378;BME280;65200;49.500;8.654;2022-12-07T09:28:10;100643.47;;;3.63;86.33
76378;BME280;65200;49.500;8.654;2022-12-07T09:30:36;100657.13;;;3.78;85.29
76378;BME280;65200;49.500;8.654;2022-12-07T09:33:03;100647.09;;;3.81;85.61
76378;BME280;65200;49.500;8.654;2022-12-07T09:35:29;100645.84;;;3.85;84.32
76378;BME280;65200;49.500;8.654;2022-12-07T09:37:56;100647.94;;;3.82;85.59
76378;BME280;65200;49.500;8.654;2022-12-07T09:40:24;100651.53;;;3.81;84.80
76378;BME280;65200;49.500;8.654;2022-12-07T09:42:52;100647.38;;;3.78;84.44
76378;BME280;65200;49.500;8.654;2022-12-07T09:45:22;100641.94;;;3.70;86.17
76378;BME280;65200;49.500;8.654;2022-12-07T09:47:50;100655.47;;;3.77;85.26
76378;BME280;65200;49.500;8.654;2022-12-07T09:50:19;100648.34;;;3.77;86.61
76378;BME280;65200;49.500;8.654;2022-12-07T09:52:48;100647.38;;;3.78;86.11
76378;BME280;65200;49.500;8.654;2022-12-07T09:55:19;100644.31;;;3.73;86.78
76378;BME280;65200;49.500;8.654;2022-12-07T09:57:48;100637.72;;;3.77;85.98
76378;BME280;65200;49.500;8.654;2022-12-07T10:00:19;100636.22;;;3.75;85.41
76378;BME280;65200;49.500;8.654;2022-12-07T10:02:47;100641.22;;;3.78;86.03
76378;BME280;65200;49.500;8.654;2022-12-07T10:05:18;100634.69;;;3.82;85.55
76378;BME280;65200;49.500;8.654;2022-12-07T10:07:46;100634.97;;;3.88;85.93
76378;BME280;65200;49.500;8.654;2022-12-07T10:10:15;100631.31;;;3.99;86.24
76378;BME280;65200;49.500;8.654;2022-12-07T10:12:56;100629.78;;;3.96;83.34
76378;BME280;65200;49.500;8.654;2022-12-07T10:15:23;100633.25;;;3.97;84.51
76378;BME280;65200;49.500;8.654;2022-12-07T10:17:51;100633.94;;;3.99;85.17
76378;BME280;65200;49.500;8.654;2022-12-07T10:20:22;100619.16;;;4.06;84.54
76378;BME280;65200;49.500;8.654;2022-12-07T10:23:00;100616.66;;;4.04;84.38
76378;BME280;65200;49.500;8.654;2022-12-07T10:25:29;100619.56;;;4.11;84.52
76378;BME280;65200;49.500;8.654;2022-12-07T10:28:02;100608.25;;;4.09;84.01
76378;BME280;65200;49.500;8.654;2022-12-07T10:30:30;100610.75;;;4.20;85.46
76378;BME280;65200;49.500;8.654;2022-12-07T10:32:57;100611.56;;;4.30;84.18
76378;BME280;65200;49.500;8.654;2022-12-07T10:35:27;100606.53;;;4.27;84.11
76378;BME280;65200;49.500;8.654;2022-12-07T10:37:55;100608.38;;;4.17;83.50
76378;BME280;65200;49.500;8.654;2022-12-07T10:40:30;100599.31;;;4.10;84.31
76378;BME280;65200;49.500;8.654;2022-12-07T10:43:05;100609.22;;;4.17;84.41
76378;BME280;65200;49.500;8.654;2022-12-07T10:45:35;100599.97;;;4.21;84.36
76378;BME280;65200;49.500;8.654;2022-12-07T10:48:08;100600.41;;;4.17;84.86
76378;BME280;65200;49.500;8.654;2022-12-07T10:50:58;100595.16;;;4.07;83.26
76378;BME280;65200;49.500;8.654;2022-12-07T10:53:56;100600.75;;;4.04;86.33
76378;BME280;65200;49.500;8.654;2022-12-07T10:56:39;100596.81;;;4.08;85.17
76378;BME280;65200;49.500;8.654;2022-12-07T11:02:20;100599.88;;;4.13;84.80
76378;BME280;65200;49.500;8.654;2022-12-07T11:04:59;100599.31;;;4.19;85.21
76378;BME280;65200;49.500;8.654;2022-12-07T11:07:40;100593.16;;;4.19;85.13
76378;BME280;65200;49.500;8.654;2022-12-07T11:10:13;100590.22;;;4.22;84.75
76378;BME280;65200;49.500;8.654;2022-12-07T11:13:08;100589.22;;;4.23;85.25
76378;BME280;65200;49.500;8.654;2022-12-07T11:15:53;100582.56;;;4.19;83.97
76378;BME280;65200;49.500;8.654;2022-12-07T11:18:24;100586.72;;;4.21;85.69
76378;BME280;65200;49.500;8.654;2022-12-07T11:20:56;100582.56;;;4.19;84.84
76378;BME280;65200;49.500;8.654;2022-12-07T11:23:39;100576.56;;;4.17;85.16
76378;BME280;65200;49.500;8.654;2022-12-07T11:26:15;100576.56;;;4.17;85.77
76378;BME280;65200;49.500;8.654;2022-12-07T11:29:11;100569.88;;;4.03;84.49
76378;BME280;65200;49.500;8.654;2022-12-07T11:31:53;100563.88;;;4.11;84.35
76378;BME280;65200;49.500;8.654;2022-12-07T11:34:30;100559.53;;;4.10;85.17
76378;BME280;65200;49.500;8.654;2022-12-07T11:37:01;100559.53;;;4.10;84.67
76378;BME280;65200;49.500;8.654;2022-12-07T11:39:33;100561.94;;;4.13;84.49
76378;BME280;65200;49.500;8.654;2022-12-07T11:42:05;100558.56;;;4.11;85.25
76378;BME280;65200;49.500;8.654;2022-12-07T11:44:39;100548.13;;;4.09;85.04
76378;BME280;65200;49.500;8.654;2022-12-07T11:47:16;100554.63;;;4.15;84.04
76378;BME280;65200;49.500;8.654;2022-12-07T11:49:46;100544.44;;;4.20;85.26
76378;BME280;65200;49.500;8.654;2022-12-07T11:52:19;100538.13;;;4.31;84.26
76378;BME280;65200;49.500;8.654;2022-12-07T11:54:49;100543.09;;;4.43;85.03
76378;BME280;65200;49.500;8.654;2022-12-07T11:57:22;100531.22;;;4.47;84.18
76378;BME280;65200;49.500;8.654;2022-12-07T11:59:52;100531.41;;;4.63;82.69
76378;BME280;65200;49.500;8.654;2022-12-07T12:02:28;100532.53;;;4.78;83.47
76378;BME280;65200;49.500;8.654;2022-12-07T12:05:02;100529.56;;;4.91;82.30
76378;BME280;65200;49.500;8.654;2022-12-07T12:07:32;100523.78;;;4.95;81.93
76378;BME280;65200;49.500;8.654;2022-12-07T12:10:02;100525.06;;;4.91;82.43
76378;BME280;65200;49.500;8.654;2022-12-07T12:13:01;100526.91;;;4.91;81.69
76378;BME280;65200;49.500;8.654;2022-12-07T12:15:42;100525.97;;;5.00;81.20
76378;BME280;65200;49.500;8.654;2022-12-07T12:18:50;100523.47;;;5.16;82.50
76378;BME280;65200;49.500;8.654;2022-12-07T12:21:22;100515.50;;;5.16;81.12
76378;BME280;65200;49.500;8.654;2022-12-07T12:23:57;100515.97;;;5.11;80.48
76378;BME280;65200;49.500;8.654;2022-12-07T12:26:27;100512.63;;;5.09;82.80
76378;BME280;65200;49.500;8.654;2022-12-07T12:28:56;100509.00;;;5.10;81.45
76378;BME280;65200;49.500;8.654;2022-12-07T12:31:34;100508.31;;;5.08;81.49
76378;BME280;65200;49.500;8.654;2022-12-07T12:36:46;100509.97;;;5.09;82.14
76378;BME280;65200;49.500;8.654;2022-12-07T12:39:14;100503.53;;;5.12;82.17
76378;BME280;65200;49.500;8.654;2022-12-07T12:41:58;100503.44;;;5.21;81.00
76378;BME280;65200;49.500;8.654;2022-12-07T12:47:51;100489.34;;;5.03;81.78
76378;BME280;65200;49.500;8.654;2022-12-07T12:50:22;100498.06;;;4.96;81.28
76378;BME280;65200;49.500;8.654;2022-12-07T12:52:53;100499.50;;;4.90;81.54
76378;BME280;65200;49.500;8.654;2022-12-07T12:55:42;100492.81;;;4.86;81.32
76378;BME280;65200;49.500;8.654;2022-12-07T12:58:34;100495.59;;;4.85;81.14
76378;BME280;65200;49.500;8.654;2022-12-07T13:01:36;100496.75;;;4.82;81.71
76378;BME280;65200;49.500;8.654;2022-12-07T13:04:17;100483.72;;;4.89;82.19
76378;BME280;65200;49.500;8.654;2022-12-07T13:06:46;100489.47;;;4.84;82.96
76378;BME280;65200;49.500;8.654;2022-12-07T13:09:19;100483.72;;;4.89;83.07
76378;BME280;65200;49.500;8.654;2022-12-07T13:11:48;100465.28;;;4.87;82.67
76378;BME280;65200;49.500;8.654;2022-12-07T13:14:53;100471.56;;;4.86;81.89
76378;BME280;65200;49.500;8.654;2022-12-07T13:17:55;100465.97;;;4.89;81.32
76378;BME280;65200;49.500;8.654;2022-12-07T13:20:43;100463.81;;;4.93;82.03
76378;BME280;65200;49.500;8.654;2022-12-07T13:23:12;100461.47;;;4.90;82.60
76378;BME280;65200;49.500;8.654;2022-12-07T13:25:46;100462.16;;;4.92;82.91
76378;BME280;65200;49.500;8.654;2022-12-07T13:28:17;100463.59;;;4.86;81.07